Terminal Aerodrome Forecast
Issued by NWS Tuscon, AZ

Home | Current Version | Previous Version | Text Only | Print | Product List | Glossary On
Versions: 1 2 3 4 5 6 7 8 9 10 11 12 13 14 15 16 17 18 19 20 21 22 23 24 25 26
000
FTUS45 KTWC 281120
TAFTUS
TAF
KTUS 281120Z 2812/2912 12008KT P6SM SCT100 BKN130
     FM281500 12007KT P6SM SCT100 SCT150
     FM282000 34007KT P6SM SCT100 SCT150
     FM290100 08009KT P6SM FEW080 BKN120
     FM290700 15005KT P6SM SCT150=

USA.gov is the U.S. government's official web portal to all federal, state and local government web resources and services.